Knossos Palace — SYQO — position and weather

sailwx.info

Track history (hours):
 
Tides and Currents Weather Stations Pressure Air Temp Water Temp Dewpoint Dewpoint Depression Visibility Wind Speed Wind Dir Waves Ship Positions

Knossos Palace

Last reported at 2014-Oct-22 02:33 UTC. Time now 2014-Oct-22 03:11 UTC.
Position N 37°43' E 023°44'.

Length 214 m; beam 26.4 m; draft 7.3 m.

Type: Passenger vessel. MMSI: 237641000.

Date/timePositionNaut miles runAvg speedWind from/ knotsBaromVisibWave heightAir tempDewpointWater temp
2014-Oct-22 02:33N 37°43' E 023°44'3919.5
2014-Oct-22 00:33N 37°07' E 024°01'2120.1
2014-Oct-21 23:31N 36°47' E 024°11'1920.0
2014-Oct-21 22:33N 36°30' E 024°21'2019.8
2014-Oct-21 21:33N 36°13' E 024°33'2020.1
2014-Oct-21 20:33N 35°55' E 024°45'2020.4
2014-Oct-21 19:33N 35°38' E 024°58'1918.8
2014-Oct-21 18:33N 35°21' E 025°09'0 0.3
2014-Oct-21 17:33N 35°21' E 025°09'0 0.0
2014-Oct-21 16:34N 35°21' E 025°09'0 0.0
2014-Oct-21 15:33N 35°21' E 025°09'0 0.0
2014-Oct-21 14:33N 35°21' E 025°09'0 0.0
2014-Oct-21 13:05N 35°21' E 025°09'0 0.0
2014-Oct-21 11:06N 35°21' E 025°09'0 0.0
2014-Oct-21 03:29N 35°21' E 025°09'1616.1
2014-Oct-21 02:30N 35°35' E 025°00'1819.2
2014-Oct-21 01:34N 35°51' E 024°49'1919.1
2014-Oct-21 00:34N 36°07' E 024°37'1919.3
2014-Oct-20 23:34N 36°24' E 024°25'1918.8
2014-Oct-20 22:33N 36°41' E 024°14'1919.2
2014-Oct-20 21:33N 36°58' E 024°04'3819.2
2014-Oct-20 19:32N 37°34' E 023°45'1616.7
2014-Oct-20 18:34N 37°49' E 023°38'8 7.7
2014-Oct-20 17:34N 37°57' E 023°38'0 0.0
2014-Oct-20 16:32N 37°57' E 023°38'0 0.0
2014-Oct-20 15:32N 37°57' E 023°38'0 0.0
2014-Oct-20 14:32N 37°57' E 023°38'0 0.0
2014-Oct-20 13:32N 37°57' E 023°38'0 0.0
2014-Oct-20 12:32N 37°57' E 023°38'0 0.0
2014-Oct-20 11:31N 37°57' E 023°38'0 0.0
2014-Oct-20 10:31N 37°57' E 023°38'0 0.0
2014-Oct-20 09:31N 37°57' E 023°38'0 0.0
2014-Oct-20 08:28N 37°57' E 023°38'0 0.0
2014-Oct-20 07:31N 37°57' E 023°38'0 0.0
2014-Oct-20 06:31N 37°57' E 023°38'0 0.0
2014-Oct-20 05:31N 37°57' E 023°38'0 0.0
2014-Oct-20 04:31N 37°57' E 023°38'0 0.0
2014-Oct-20 03:33N 37°57' E 023°38'1313.2
2014-Oct-20 02:34N 37°44' E 023°44'8120.2
2014-Oct-19 22:33N 36°29' E 024°21'2020.1
2014-Oct-19 21:33N 36°12' E 024°33'2020.0
2014-Oct-19 20:33N 35°54' E 024°46'2020.3
2014-Oct-19 19:33N 35°37' E 024°59'18 1.1
2014-Oct-19 03:31N 35°21' E 025°09'1616.2
2014-Oct-19 02:32N 35°35' E 024°60'1818.6
2014-Oct-19 01:34N 35°50' E 024°48'1818.2
2014-Oct-19 00:34N 36°06' E 024°36'1918.9
2014-Oct-18 23:33N 36°23' E 024°25'1818.3
2014-Oct-18 22:33N 36°39' E 024°14'1918.6
2014-Oct-18 21:34N 36°56' E 024°05'3918.9
2014-Oct-18 19:29N 37°32' E 023°46'1819.4
2014-Oct-18 18:34N 37°49' E 023°38'8 8.0
2014-Oct-18 17:33N 37°57' E 023°38'0 0.0
2014-Oct-18 16:32N 37°57' E 023°38'0 0.0
2014-Oct-18 15:32N 37°57' E 023°38'0 0.0
2014-Oct-18 14:32N 37°57' E 023°38'0 0.0
2014-Oct-18 13:32N 37°57' E 023°38'0 0.0
2014-Oct-18 12:32N 37°57' E 023°38'0 0.0
2014-Oct-18 11:29N 37°57' E 023°38'0 0.0
2014-Oct-18 10:32N 37°57' E 023°38'0 0.0
2014-Oct-18 09:32N 37°57' E 023°38'0 0.0
2014-Oct-18 08:32N 37°57' E 023°38'0 0.0
2014-Oct-18 07:32N 37°57' E 023°38'0 0.0
2014-Oct-18 06:32N 37°57' E 023°38'0 0.0
2014-Oct-18 05:32N 37°57' E 023°38'0 0.0
2014-Oct-18 04:32N 37°57' E 023°38'2 1.9
2014-Oct-18 03:33N 37°55' E 023°37'1817.8
2014-Oct-18 02:33N 37°39' E 023°47'2119.3
2014-Oct-18 01:27N 37°19' E 023°56'1819.9
2014-Oct-18 00:33N 37°02' E 024°03'2020.2
2014-Oct-17 23:33N 36°43' E 024°12'1919.6
2014-Oct-17 22:33N 36°26' E 024°24'1919.3
2014-Oct-17 21:33N 36°09' E 024°36'1918.9
2014-Oct-17 20:33N 35°53' E 024°47'1918.8
2014-Oct-17 19:33N 35°36' E 024°59'1717.3
2014-Oct-17 18:33N 35°21' E 025°09'0 0.3
2014-Oct-17 17:33N 35°21' E 025°09'0 0.0
2014-Oct-17 16:33N 35°21' E 025°09'0 0.0
2014-Oct-17 15:33N 35°21' E 025°09'0 0.0
2014-Oct-17 14:33N 35°21' E 025°09'0 0.0
2014-Oct-17 13:33N 35°21' E 025°09'0 0.0
2014-Oct-17 12:33N 35°21' E 025°09'0 0.0
2014-Oct-17 11:33N 35°21' E 025°09'0 0.0
2014-Oct-17 10:32N 35°21' E 025°09'0 0.0
2014-Oct-17 09:32N 35°21' E 025°09'0 0.0
2014-Oct-17 08:33N 35°21' E 025°09'0 0.0
2014-Oct-17 07:33N 35°21' E 025°09'0 0.0
2014-Oct-17 06:33N 35°21' E 025°09'0 0.0
2014-Oct-17 05:33N 35°21' E 025°09'0 0.0
2014-Oct-17 04:33N 35°21' E 025°09'0 0.0
2014-Oct-17 03:33N 35°21' E 025°09'1413.7
2014-Oct-17 02:33N 35°33' E 025°02'1918.7
2014-Oct-17 01:33N 35°49' E 024°49'1918.9
2014-Oct-17 00:33N 36°05' E 024°38'1919.0
2014-Oct-16 23:33N 36°21' E 024°25'1918.9
2014-Oct-16 22:33N 36°38' E 024°14'1919.4
2014-Oct-16 21:33N 36°55' E 024°04'2519.0
2014-Oct-16 20:14N 37°19' E 023°53'1419.4
2014-Oct-16 19:32N 37°31' E 023°47'1919.5
2014-Oct-16 18:33N 37°49' E 023°37'8 7.8
2014-Oct-16 17:34N 37°57' E 023°38'0 0.0
2014-Oct-16 16:33N 37°57' E 023°38'0 0.0
2014-Oct-16 15:33N 37°57' E 023°38'0 0.0
2014-Oct-16 14:33N 37°57' E 023°38'0 0.0
2014-Oct-16 13:33N 37°57' E 023°38'0 0.0
2014-Oct-16 12:33N 37°57' E 023°38'0 0.0
2014-Oct-16 11:33N 37°57' E 023°38'0 0.0
2014-Oct-16 10:33N 37°57' E 023°38'0 0.0
2014-Oct-16 09:33N 37°57' E 023°38'0 0.0
2014-Oct-16 08:33N 37°57' E 023°38'0 0.0
2014-Oct-16 07:33N 37°57' E 023°38'0 0.0
2014-Oct-16 06:33N 37°57' E 023°38'0 0.0
2014-Oct-16 05:33N 37°57' E 023°38'0 0.0
2014-Oct-16 04:33N 37°57' E 023°38'0 0.1
2014-Oct-16 03:34N 37°56' E 023°38'1414.1
2014-Oct-16 02:33N 37°43' E 023°44'2120.6
2014-Oct-16 01:33N 37°24' E 023°53'2020.2
2014-Oct-16 00:33N 37°05' E 024°02'2019.8
2014-Oct-15 23:33N 36°46' E 024°11'2020.1
2014-Oct-15 22:33N 36°29' E 024°22'2020.0
2014-Oct-15 21:33N 36°11' E 024°34'2019.7
2014-Oct-15 20:33N 35°54' E 024°46'2020.0
2014-Oct-15 19:33N 35°37' E 024°59'1817.8
2014-Oct-15 18:34N 35°21' E 025°09'0 0.2
2014-Oct-15 17:28N 35°21' E 025°09'0 0.0
2014-Oct-15 16:31N 35°21' E 025°09'0 0.0
2014-Oct-15 15:31N 35°21' E 025°09'0 0.0
2014-Oct-15 14:31N 35°21' E 025°09'0 0.0
2014-Oct-15 13:31N 35°21' E 025°09'0 0.0
2014-Oct-15 12:31N 35°21' E 025°09'0 0.0
2014-Oct-15 11:31N 35°21' E 025°09'0 0.0
2014-Oct-15 10:28N 35°21' E 025°09'0 0.0
2014-Oct-15 09:16N 35°21' E 025°09'0 0.0
2014-Oct-15 04:33N 35°21' E 025°09'0 0.1
2014-Oct-15 03:28N 35°21' E 025°09'1314.7
2014-Oct-15 02:33N 35°33' E 025°02'1919.2
2014-Oct-15 01:33N 35°49' E 024°50'1919.4
2014-Oct-15 00:33N 36°06' E 024°38'1919.1
2014-Oct-14 23:33N 36°23' E 024°26'1918.6
2014-Oct-14 22:33N 36°39' E 024°14'1919.1
2014-Oct-14 21:33N 36°57' E 024°05'2319.3
2014-Oct-14 20:22N 37°18' E 023°54'1818.5
2014-Oct-14 19:25N 37°34' E 023°45'1619.1
2014-Oct-14 18:33N 37°49' E 023°38'7 7.3
2014-Oct-14 17:33N 37°57' E 023°38'0 0.0
2014-Oct-14 16:32N 37°57' E 023°38'0 0.0
2014-Oct-14 15:32N 37°57' E 023°38'0 0.0
2014-Oct-14 14:32N 37°57' E 023°38'0 0.0
2014-Oct-14 13:32N 37°57' E 023°38'0 0.0
2014-Oct-14 12:32N 37°57' E 023°38'0 0.0
2014-Oct-14 11:32N 37°57' E 023°38'0 0.0
2014-Oct-14 10:32N 37°57' E 023°38'0 0.0
2014-Oct-14 09:32N 37°57' E 023°38'0 0.0
2014-Oct-14 08:32N 37°57' E 023°38'0 0.0
2014-Oct-14 07:32N 37°57' E 023°38'0 0.0
2014-Oct-14 06:32N 37°57' E 023°38'0 0.0
2014-Oct-14 05:32N 37°57' E 023°38'0 0.0
2014-Oct-14 04:32N 37°57' E 023°38'0 0.0
2014-Oct-14 03:34N 37°57' E 023°38'1414.2
2014-Oct-14 02:33N 37°43' E 023°44'2520.5
2014-Oct-14 01:20N 37°20' E 023°56'1620.0
2014-Oct-14 00:33N 37°05' E 024°02'2020.1
2014-Oct-13 23:33N 36°46' E 024°11'2020.4
2014-Oct-13 22:34N 36°28' E 024°22'2020.4
2014-Oct-13 21:33N 36°10' E 024°35'2019.9
2014-Oct-13 20:34N 35°53' E 024°47'2019.7
2014-Oct-13 19:33N 35°36' E 024°59'17 3.3
2014-Oct-13 14:22N 35°21' E 025°09'0 0.0
2014-Oct-13 03:30N 35°21' E 025°09'1414.8
2014-Oct-13 02:33N 35°33' E 025°01'1919.4
2014-Oct-13 01:33N 35°50' E 024°49'1919.4
2014-Oct-13 00:33N 36°07' E 024°37'1918.9
2014-Oct-12 23:33N 36°23' E 024°25'1918.8
2014-Oct-12 22:31N 36°40' E 024°14'1919.3
2014-Oct-12 21:33N 36°57' E 024°04'2319.2
2014-Oct-12 20:22N 37°18' E 023°53'1818.4
2014-Oct-12 19:23N 37°35' E 023°44'1618.7
2014-Oct-12 18:33N 37°49' E 023°37'7 7.0
2014-Oct-12 17:31N 37°57' E 023°38'0 0.0
2014-Oct-12 16:31N 37°57' E 023°38'0 0.0
2014-Oct-12 15:31N 37°57' E 023°38'0 0.0
2014-Oct-12 14:31N 37°57' E 023°38'0 0.0
2014-Oct-12 13:31N 37°57' E 023°38'0 0.0
2014-Oct-12 12:31N 37°57' E 023°38'0 0.0
2014-Oct-12 11:31N 37°57' E 023°38'0 0.0
2014-Oct-12 10:31N 37°57' E 023°38'0 0.0
2014-Oct-12 09:31N 37°57' E 023°38'0 0.0
2014-Oct-12 08:31N 37°57' E 023°38'0 0.0
2014-Oct-12 07:31N 37°57' E 023°38'0 0.0
2014-Oct-12 06:31N 37°57' E 023°38'0 0.0
2014-Oct-12 05:31N 37°57' E 023°38'0 0.0
2014-Oct-12 04:31N 37°57' E 023°38'0 0.1
2014-Oct-12 03:34N 37°56' E 023°38'  
Track history (hours):
 
Tides and Currents Weather Stations Pressure Air Temp Water Temp Dewpoint Dewpoint Depression Visibility Wind Speed Wind Dir Waves Ship Positions

Knossos Palace

Last reported at 2014-Oct-22 02:33 UTC. Time now 2014-Oct-22 03:11 UTC.
Position N 37°43' E 023°44'.

Length 214 m; beam 26.4 m; draft 7.3 m.

Type: Passenger vessel. MMSI: 237641000.

Date/timePositionNaut miles runAvg speedWind from/ knotsBaromVisibWave heightAir tempDewpointWater temp
2014-Oct-22 02:33N 37°43' E 023°44'3919.5
2014-Oct-22 00:33N 37°07' E 024°01'2120.1
2014-Oct-21 23:31N 36°47' E 024°11'1920.0
2014-Oct-21 22:33N 36°30' E 024°21'2019.8
2014-Oct-21 21:33N 36°13' E 024°33'2020.1
2014-Oct-21 20:33N 35°55' E 024°45'2020.4
2014-Oct-21 19:33N 35°38' E 024°58'1918.8
2014-Oct-21 18:33N 35°21' E 025°09'0 0.3
2014-Oct-21 17:33N 35°21' E 025°09'0 0.0
2014-Oct-21 16:34N 35°21' E 025°09'0 0.0
2014-Oct-21 15:33N 35°21' E 025°09'0 0.0
2014-Oct-21 14:33N 35°21' E 025°09'0 0.0
2014-Oct-21 13:05N 35°21' E 025°09'0 0.0
2014-Oct-21 11:06N 35°21' E 025°09'0 0.0
2014-Oct-21 03:29N 35°21' E 025°09'1616.1
2014-Oct-21 02:30N 35°35' E 025°00'1819.2
2014-Oct-21 01:34N 35°51' E 024°49'1919.1
2014-Oct-21 00:34N 36°07' E 024°37'1919.3
2014-Oct-20 23:34N 36°24' E 024°25'1918.8
2014-Oct-20 22:33N 36°41' E 024°14'1919.2
2014-Oct-20 21:33N 36°58' E 024°04'3819.2
2014-Oct-20 19:32N 37°34' E 023°45'1616.7
2014-Oct-20 18:34N 37°49' E 023°38'8 7.7
2014-Oct-20 17:34N 37°57' E 023°38'0 0.0
2014-Oct-20 16:32N 37°57' E 023°38'0 0.0
2014-Oct-20 15:32N 37°57' E 023°38'0 0.0
2014-Oct-20 14:32N 37°57' E 023°38'0 0.0
2014-Oct-20 13:32N 37°57' E 023°38'0 0.0
2014-Oct-20 12:32N 37°57' E 023°38'0 0.0
2014-Oct-20 11:31N 37°57' E 023°38'0 0.0
2014-Oct-20 10:31N 37°57' E 023°38'0 0.0
2014-Oct-20 09:31N 37°57' E 023°38'0 0.0
2014-Oct-20 08:28N 37°57' E 023°38'0 0.0
2014-Oct-20 07:31N 37°57' E 023°38'0 0.0
2014-Oct-20 06:31N 37°57' E 023°38'0 0.0
2014-Oct-20 05:31N 37°57' E 023°38'0 0.0
2014-Oct-20 04:31N 37°57' E 023°38'0 0.0
2014-Oct-20 03:33N 37°57' E 023°38'1313.2
2014-Oct-20 02:34N 37°44' E 023°44'8120.2
2014-Oct-19 22:33N 36°29' E 024°21'2020.1
2014-Oct-19 21:33N 36°12' E 024°33'2020.0
2014-Oct-19 20:33N 35°54' E 024°46'2020.3
2014-Oct-19 19:33N 35°37' E 024°59'18 1.1
2014-Oct-19 03:31N 35°21' E 025°09'1616.2
2014-Oct-19 02:32N 35°35' E 024°60'1818.6
2014-Oct-19 01:34N 35°50' E 024°48'1818.2
2014-Oct-19 00:34N 36°06' E 024°36'1918.9
2014-Oct-18 23:33N 36°23' E 024°25'1818.3
2014-Oct-18 22:33N 36°39' E 024°14'1918.6
2014-Oct-18 21:34N 36°56' E 024°05'3918.9
2014-Oct-18 19:29N 37°32' E 023°46'1819.4
2014-Oct-18 18:34N 37°49' E 023°38'8 8.0
2014-Oct-18 17:33N 37°57' E 023°38'0 0.0
2014-Oct-18 16:32N 37°57' E 023°38'0 0.0
2014-Oct-18 15:32N 37°57' E 023°38'0 0.0
2014-Oct-18 14:32N 37°57' E 023°38'0 0.0
2014-Oct-18 13:32N 37°57' E 023°38'0 0.0
2014-Oct-18 12:32N 37°57' E 023°38'0 0.0
2014-Oct-18 11:29N 37°57' E 023°38'0 0.0
2014-Oct-18 10:32N 37°57' E 023°38'0 0.0
2014-Oct-18 09:32N 37°57' E 023°38'0 0.0
2014-Oct-18 08:32N 37°57' E 023°38'0 0.0
2014-Oct-18 07:32N 37°57' E 023°38'0 0.0
2014-Oct-18 06:32N 37°57' E 023°38'0 0.0
2014-Oct-18 05:32N 37°57' E 023°38'0 0.0
2014-Oct-18 04:32N 37°57' E 023°38'2 1.9
2014-Oct-18 03:33N 37°55' E 023°37'1817.8
2014-Oct-18 02:33N 37°39' E 023°47'2119.3
2014-Oct-18 01:27N 37°19' E 023°56'1819.9
2014-Oct-18 00:33N 37°02' E 024°03'2020.2
2014-Oct-17 23:33N 36°43' E 024°12'1919.6
2014-Oct-17 22:33N 36°26' E 024°24'1919.3
2014-Oct-17 21:33N 36°09' E 024°36'1918.9
2014-Oct-17 20:33N 35°53' E 024°47'1918.8
2014-Oct-17 19:33N 35°36' E 024°59'1717.3
2014-Oct-17 18:33N 35°21' E 025°09'0 0.3
2014-Oct-17 17:33N 35°21' E 025°09'0 0.0
2014-Oct-17 16:33N 35°21' E 025°09'0 0.0
2014-Oct-17 15:33N 35°21' E 025°09'0 0.0
2014-Oct-17 14:33N 35°21' E 025°09'0 0.0
2014-Oct-17 13:33N 35°21' E 025°09'0 0.0
2014-Oct-17 12:33N 35°21' E 025°09'0 0.0
2014-Oct-17 11:33N 35°21' E 025°09'0 0.0
2014-Oct-17 10:32N 35°21' E 025°09'0 0.0
2014-Oct-17 09:32N 35°21' E 025°09'0 0.0
2014-Oct-17 08:33N 35°21' E 025°09'0 0.0
2014-Oct-17 07:33N 35°21' E 025°09'0 0.0
2014-Oct-17 06:33N 35°21' E 025°09'0 0.0
2014-Oct-17 05:33N 35°21' E 025°09'0 0.0
2014-Oct-17 04:33N 35°21' E 025°09'0 0.0
2014-Oct-17 03:33N 35°21' E 025°09'1413.7
2014-Oct-17 02:33N 35°33' E 025°02'1918.7
2014-Oct-17 01:33N 35°49' E 024°49'1918.9
2014-Oct-17 00:33N 36°05' E 024°38'1919.0
2014-Oct-16 23:33N 36°21' E 024°25'1918.9
2014-Oct-16 22:33N 36°38' E 024°14'1919.4
2014-Oct-16 21:33N 36°55' E 024°04'2519.0
2014-Oct-16 20:14N 37°19' E 023°53'1419.4
2014-Oct-16 19:32N 37°31' E 023°47'1919.5
2014-Oct-16 18:33N 37°49' E 023°37'8 7.8
2014-Oct-16 17:34N 37°57' E 023°38'0 0.0
2014-Oct-16 16:33N 37°57' E 023°38'0 0.0
2014-Oct-16 15:33N 37°57' E 023°38'0 0.0
2014-Oct-16 14:33N 37°57' E 023°38'0 0.0
2014-Oct-16 13:33N 37°57' E 023°38'0 0.0
2014-Oct-16 12:33N 37°57' E 023°38'0 0.0
2014-Oct-16 11:33N 37°57' E 023°38'0 0.0
2014-Oct-16 10:33N 37°57' E 023°38'0 0.0
2014-Oct-16 09:33N 37°57' E 023°38'0 0.0
2014-Oct-16 08:33N 37°57' E 023°38'0 0.0
2014-Oct-16 07:33N 37°57' E 023°38'0 0.0
2014-Oct-16 06:33N 37°57' E 023°38'0 0.0
2014-Oct-16 05:33N 37°57' E 023°38'0 0.0
2014-Oct-16 04:33N 37°57' E 023°38'0 0.1
2014-Oct-16 03:34N 37°56' E 023°38'1414.1
2014-Oct-16 02:33N 37°43' E 023°44'2120.6
2014-Oct-16 01:33N 37°24' E 023°53'2020.2
2014-Oct-16 00:33N 37°05' E 024°02'2019.8
2014-Oct-15 23:33N 36°46' E 024°11'2020.1
2014-Oct-15 22:33N 36°29' E 024°22'2020.0
2014-Oct-15 21:33N 36°11' E 024°34'2019.7
2014-Oct-15 20:33N 35°54' E 024°46'2020.0
2014-Oct-15 19:33N 35°37' E 024°59'1817.8
2014-Oct-15 18:34N 35°21' E 025°09'0 0.2
2014-Oct-15 17:28N 35°21' E 025°09'0 0.0
2014-Oct-15 16:31N 35°21' E 025°09'0 0.0
2014-Oct-15 15:31N 35°21' E 025°09'0 0.0
2014-Oct-15 14:31N 35°21' E 025°09'0 0.0
2014-Oct-15 13:31N 35°21' E 025°09'0 0.0
2014-Oct-15 12:31N 35°21' E 025°09'0 0.0
2014-Oct-15 11:31N 35°21' E 025°09'0 0.0
2014-Oct-15 10:28N 35°21' E 025°09'0 0.0
2014-Oct-15 09:16N 35°21' E 025°09'0 0.0
2014-Oct-15 04:33N 35°21' E 025°09'0 0.1
2014-Oct-15 03:28N 35°21' E 025°09'1314.7
2014-Oct-15 02:33N 35°33' E 025°02'1919.2
2014-Oct-15 01:33N 35°49' E 024°50'1919.4
2014-Oct-15 00:33N 36°06' E 024°38'1919.1
2014-Oct-14 23:33N 36°23' E 024°26'1918.6
2014-Oct-14 22:33N 36°39' E 024°14'1919.1
2014-Oct-14 21:33N 36°57' E 024°05'2319.3
2014-Oct-14 20:22N 37°18' E 023°54'1818.5
2014-Oct-14 19:25N 37°34' E 023°45'1619.1
2014-Oct-14 18:33N 37°49' E 023°38'7 7.3
2014-Oct-14 17:33N 37°57' E 023°38'0 0.0
2014-Oct-14 16:32N 37°57' E 023°38'0 0.0
2014-Oct-14 15:32N 37°57' E 023°38'0 0.0
2014-Oct-14 14:32N 37°57' E 023°38'0 0.0
2014-Oct-14 13:32N 37°57' E 023°38'0 0.0
2014-Oct-14 12:32N 37°57' E 023°38'0 0.0
2014-Oct-14 11:32N 37°57' E 023°38'0 0.0
2014-Oct-14 10:32N 37°57' E 023°38'0 0.0
2014-Oct-14 09:32N 37°57' E 023°38'0 0.0
2014-Oct-14 08:32N 37°57' E 023°38'0 0.0
2014-Oct-14 07:32N 37°57' E 023°38'0 0.0
2014-Oct-14 06:32N 37°57' E 023°38'0 0.0
2014-Oct-14 05:32N 37°57' E 023°38'0 0.0
2014-Oct-14 04:32N 37°57' E 023°38'0 0.0
2014-Oct-14 03:34N 37°57' E 023°38'1414.2
2014-Oct-14 02:33N 37°43' E 023°44'2520.5
2014-Oct-14 01:20N 37°20' E 023°56'1620.0
2014-Oct-14 00:33N 37°05' E 024°02'2020.1
2014-Oct-13 23:33N 36°46' E 024°11'2020.4
2014-Oct-13 22:34N 36°28' E 024°22'2020.4
2014-Oct-13 21:33N 36°10' E 024°35'2019.9
2014-Oct-13 20:34N 35°53' E 024°47'2019.7
2014-Oct-13 19:33N 35°36' E 024°59'17 3.3
2014-Oct-13 14:22N 35°21' E 025°09'0 0.0
2014-Oct-13 03:30N 35°21' E 025°09'1414.8
2014-Oct-13 02:33N 35°33' E 025°01'1919.4
2014-Oct-13 01:33N 35°50' E 024°49'1919.4
2014-Oct-13 00:33N 36°07' E 024°37'1918.9
2014-Oct-12 23:33N 36°23' E 024°25'1918.8
2014-Oct-12 22:31N 36°40' E 024°14'1919.3
2014-Oct-12 21:33N 36°57' E 024°04'2319.2
2014-Oct-12 20:22N 37°18' E 023°53'1818.4
2014-Oct-12 19:23N 37°35' E 023°44'1618.7
2014-Oct-12 18:33N 37°49' E 023°37'7 7.0
2014-Oct-12 17:31N 37°57' E 023°38'0 0.0
2014-Oct-12 16:31N 37°57' E 023°38'0 0.0
2014-Oct-12 15:31N 37°57' E 023°38'0 0.0
2014-Oct-12 14:31N 37°57' E 023°38'0 0.0
2014-Oct-12 13:31N 37°57' E 023°38'0 0.0
2014-Oct-12 12:31N 37°57' E 023°38'0 0.0
2014-Oct-12 11:31N 37°57' E 023°38'0 0.0
2014-Oct-12 10:31N 37°57' E 023°38'0 0.0
2014-Oct-12 09:31N 37°57' E 023°38'0 0.0
2014-Oct-12 08:31N 37°57' E 023°38'0 0.0
2014-Oct-12 07:31N 37°57' E 023°38'0 0.0
2014-Oct-12 06:31N 37°57' E 023°38'0 0.0
2014-Oct-12 05:31N 37°57' E 023°38'0 0.0
2014-Oct-12 04:31N 37°57' E 023°38'0 0.1
2014-Oct-12 03:34N 37°56' E 023°38'  

Dump ship's entire track history